sensor_id;sensor_type;location;lat;lon;timestamp;temperature;humidity
81307;DHT22;70775;50.846;3.224;2023-12-04T00:00:39;3.20;94.40
81307;DHT22;70775;50.846;3.224;2023-12-04T00:03:04;3.20;94.30
81307;DHT22;70775;50.846;3.224;2023-12-04T00:05:30;3.20;94.30
81307;DHT22;70775;50.846;3.224;2023-12-04T00:07:55;3.20;94.00
81307;DHT22;70775;50.846;3.224;2023-12-04T00:10:59;3.20;94.20
81307;DHT22;70775;50.846;3.224;2023-12-04T00:13:31;3.30;94.30
81307;DHT22;70775;50.846;3.224;2023-12-04T00:15:57;3.20;94.30
81307;DHT22;70775;50.846;3.224;2023-12-04T00:18:23;3.20;94.20
81307;DHT22;70775;50.846;3.224;2023-12-04T00:20:49;3.30;93.80
81307;DHT22;70775;50.846;3.224;2023-12-04T00:23:15;3.30;93.80
81307;DHT22;70775;50.846;3.224;2023-12-04T00:25:40;3.30;93.80
81307;DHT22;70775;50.846;3.224;2023-12-04T00:28:06;3.30;94.00
81307;DHT22;70775;50.846;3.224;2023-12-04T00:30:32;3.30;93.70
81307;DHT22;70775;50.846;3.224;2023-12-04T00:33:12;3.30;93.70
81307;DHT22;70775;50.846;3.224;2023-12-04T00:35:44;3.30;93.80
81307;DHT22;70775;50.846;3.224;2023-12-04T00:38:11;3.30;93.60
81307;DHT22;70775;50.846;3.224;2023-12-04T00:40:36;3.40;93.60
81307;DHT22;70775;50.846;3.224;2023-12-04T00:43:02;3.40;93.50
81307;DHT22;70775;50.846;3.224;2023-12-04T00:45:28;3.40;93.40
81307;DHT22;70775;50.846;3.224;2023-12-04T00:48:28;3.40;93.20
81307;DHT22;70775;50.846;3.224;2023-12-04T00:51:08;3.40;93.30
81307;DHT22;70775;50.846;3.224;2023-12-04T00:53:34;3.40;93.20
81307;DHT22;70775;50.846;3.224;2023-12-04T00:56:00;3.40;93.10
81307;DHT22;70775;50.846;3.224;2023-12-04T00:58:31;3.40;93.10
81307;DHT22;70775;50.846;3.224;2023-12-04T01:00:57;3.40;93.20
81307;DHT22;70775;50.846;3.224;2023-12-04T01:03:23;3.40;93.20
81307;DHT22;70775;50.846;3.224;2023-12-04T01:05:48;3.40;93.40
81307;DHT22;70775;50.846;3.224;2023-12-04T01:08:14;3.50;92.90
81307;DHT22;70775;50.846;3.224;2023-12-04T01:10:40;3.50;92.60
81307;DHT22;70775;50.846;3.224;2023-12-04T01:13:05;3.40;92.90
81307;DHT22;70775;50.846;3.224;2023-12-04T01:15:40;3.40;92.90
81307;DHT22;70775;50.846;3.224;2023-12-04T01:18:06;3.50;93.30
81307;DHT22;70775;50.846;3.224;2023-12-04T01:20:32;3.50;92.60
81307;DHT22;70775;50.846;3.224;2023-12-04T01:22:58;3.50;92.90
81307;DHT22;70775;50.846;3.224;2023-12-04T01:25:24;3.50;92.60
81307;DHT22;70775;50.846;3.224;2023-12-04T01:27:58;3.50;92.60
81307;DHT22;70775;50.846;3.224;2023-12-04T01:30:28;3.50;92.30
81307;DHT22;70775;50.846;3.224;2023-12-04T01:32:53;3.50;92.40
81307;DHT22;70775;50.846;3.224;2023-12-04T01:35:19;3.50;92.20
81307;DHT22;70775;50.846;3.224;2023-12-04T01:37:44;3.50;92.20
81307;DHT22;70775;50.846;3.224;2023-12-04T01:40:10;3.50;92.20
81307;DHT22;70775;50.846;3.224;2023-12-04T01:42:42;3.60;92.10
81307;DHT22;70775;50.846;3.224;2023-12-04T01:45:08;3.60;91.80
81307;DHT22;70775;50.846;3.224;2023-12-04T01:47:35;3.60;91.80
81307;DHT22;70775;50.846;3.224;2023-12-04T01:50:32;3.60;91.90
81307;DHT22;70775;50.846;3.224;2023-12-04T01:52:58;3.60;91.60
81307;DHT22;70775;50.846;3.224;2023-12-04T01:55:24;3.60;91.40
81307;DHT22;70775;50.846;3.224;2023-12-04T01:57:49;3.70;91.10
81307;DHT22;70775;50.846;3.224;2023-12-04T02:00:17;3.70;91.00
81307;DHT22;70775;50.846;3.224;2023-12-04T02:02:46;3.70;90.60
81307;DHT22;70775;50.846;3.224;2023-12-04T02:05:12;3.70;90.70
81307;DHT22;70775;50.846;3.224;2023-12-04T02:07:41;3.70;90.70
81307;DHT22;70775;50.846;3.224;2023-12-04T02:13:23;3.70;90.30
81307;DHT22;70775;50.846;3.224;2023-12-04T02:19:47;3.70;90.80
81307;DHT22;70775;50.846;3.224;2023-12-04T02:22:16;3.70;90.30
81307;DHT22;70775;50.846;3.224;2023-12-04T02:24:45;3.80;90.20
81307;DHT22;70775;50.846;3.224;2023-12-04T02:27:20;3.80;90.50
81307;DHT22;70775;50.846;3.224;2023-12-04T02:29:53;3.80;90.50
81307;DHT22;70775;50.846;3.224;2023-12-04T02:35:29;3.90;90.00
81307;DHT22;70775;50.846;3.224;2023-12-04T02:37:57;4.00;89.00
81307;DHT22;70775;50.846;3.224;2023-12-04T02:40:24;4.00;90.10
81307;DHT22;70775;50.846;3.224;2023-12-04T02:45:59;4.00;88.70
81307;DHT22;70775;50.846;3.224;2023-12-04T02:48:25;4.00;89.00
81307;DHT22;70775;50.846;3.224;2023-12-04T02:50:50;4.10;88.50
81307;DHT22;70775;50.846;3.224;2023-12-04T02:53:16;4.20;88.60
81307;DHT22;70775;50.846;3.224;2023-12-04T02:55:44;4.10;88.00
81307;DHT22;70775;50.846;3.224;2023-12-04T02:58:15;4.20;88.50
81307;DHT22;70775;50.846;3.224;2023-12-04T03:00:40;4.30;87.20
81307;DHT22;70775;50.846;3.224;2023-12-04T03:03:06;4.30;86.60
81307;DHT22;70775;50.846;3.224;2023-12-04T03:05:56;4.30;86.50
81307;DHT22;70775;50.846;3.224;2023-12-04T03:08:21;4.30;86.90
81307;DHT22;70775;50.846;3.224;2023-12-04T03:10:47;4.30;87.40
81307;DHT22;70775;50.846;3.224;2023-12-04T03:13:12;4.40;87.10
81307;DHT22;70775;50.846;3.224;2023-12-04T03:15:38;4.30;87.00
81307;DHT22;70775;50.846;3.224;2023-12-04T03:18:04;4.30;86.80
81307;DHT22;70775;50.846;3.224;2023-12-04T03:20:49;4.30;85.80
81307;DHT22;70775;50.846;3.224;2023-12-04T03:23:44;4.20;86.90
81307;DHT22;70775;50.846;3.224;2023-12-04T03:26:09;4.20;87.40
81307;DHT22;70775;50.846;3.224;2023-12-04T03:28:59;4.20;86.50
81307;DHT22;70775;50.846;3.224;2023-12-04T03:31:25;4.10;86.80
81307;DHT22;70775;50.846;3.224;2023-12-04T03:33:50;4.20;86.30
81307;DHT22;70775;50.846;3.224;2023-12-04T03:36:32;4.10;86.90
81307;DHT22;70775;50.846;3.224;2023-12-04T03:38:58;4.20;86.00
81307;DHT22;70775;50.846;3.224;2023-12-04T03:41:23;4.10;86.40
81307;DHT22;70775;50.846;3.224;2023-12-04T03:43:49;4.10;87.50
81307;DHT22;70775;50.846;3.224;2023-12-04T03:46:14;4.10;86.40
81307;DHT22;70775;50.846;3.224;2023-12-04T03:48:40;4.10;86.70
81307;DHT22;70775;50.846;3.224;2023-12-04T03:51:06;4.10;86.60
81307;DHT22;70775;50.846;3.224;2023-12-04T03:54:09;4.10;85.40
81307;DHT22;70775;50.846;3.224;2023-12-04T03:56:34;4.20;85.90
81307;DHT22;70775;50.846;3.224;2023-12-04T03:59:01;4.20;85.20
81307;DHT22;70775;50.846;3.224;2023-12-04T04:01:41;4.20;85.80
81307;DHT22;70775;50.846;3.224;2023-12-04T04:04:24;4.20;86.10
81307;DHT22;70775;50.846;3.224;2023-12-04T04:06:49;4.20;86.40
81307;DHT22;70775;50.846;3.224;2023-12-04T04:09:15;4.20;86.70
81307;DHT22;70775;50.846;3.224;2023-12-04T04:11:56;4.20;86.30
81307;DHT22;70775;50.846;3.224;2023-12-04T04:14:42;4.20;86.40
81307;DHT22;70775;50.846;3.224;2023-12-04T04:17:07;4.20;87.10
81307;DHT22;70775;50.846;3.224;2023-12-04T04:20:05;4.20;86.90
81307;DHT22;70775;50.846;3.224;2023-12-04T04:22:30;4.20;87.10
81307;DHT22;70775;50.846;3.224;2023-12-04T04:25:09;4.20;86.40
81307;DHT22;70775;50.846;3.224;2023-12-04T04:27:47;4.20;84.60
81307;DHT22;70775;50.846;3.224;2023-12-04T04:30:25;4.20;86.50
81307;DHT22;70775;50.846;3.224;2023-12-04T04:32:51;4.20;85.50
81307;DHT22;70775;50.846;3.224;2023-12-04T04:35:16;4.20;85.40
81307;DHT22;70775;50.846;3.224;2023-12-04T04:37:53;4.20;85.60
81307;DHT22;70775;50.846;3.224;2023-12-04T04:40:19;4.20;84.80
81307;DHT22;70775;50.846;3.224;2023-12-04T04:42:46;4.20;84.40
81307;DHT22;70775;50.846;3.224;2023-12-04T04:45:16;4.20;84.80
81307;DHT22;70775;50.846;3.224;2023-12-04T04:47:42;4.20;83.90
81307;DHT22;70775;50.846;3.224;2023-12-04T04:50:07;4.20;83.50
81307;DHT22;70775;50.846;3.224;2023-12-04T04:52:39;4.20;84.10
81307;DHT22;70775;50.846;3.224;2023-12-04T04:55:05;4.30;83.90
81307;DHT22;70775;50.846;3.224;2023-12-04T04:57:31;4.30;83.30
81307;DHT22;70775;50.846;3.224;2023-12-04T04:59:56;4.30;84.40
81307;DHT22;70775;50.846;3.224;2023-12-04T05:02:26;4.30;83.20
81307;DHT22;70775;50.846;3.224;2023-12-04T05:04:54;4.40;83.00
81307;DHT22;70775;50.846;3.224;2023-12-04T05:07:19;4.40;83.70
81307;DHT22;70775;50.846;3.224;2023-12-04T05:09:48;4.40;82.90
81307;DHT22;70775;50.846;3.224;2023-12-04T05:12:13;4.40;82.80
81307;DHT22;70775;50.846;3.224;2023-12-04T05:14:50;4.30;83.50
81307;DHT22;70775;50.846;3.224;2023-12-04T05:17:16;4.30;83.30
81307;DHT22;70775;50.846;3.224;2023-12-04T05:19:41;4.30;83.40
81307;DHT22;70775;50.846;3.224;2023-12-04T05:22:08;4.30;83.40
81307;DHT22;70775;50.846;3.224;2023-12-04T05:24:33;4.30;83.80
81307;DHT22;70775;50.846;3.224;2023-12-04T05:27:08;4.20;84.40
81307;DHT22;70775;50.846;3.224;2023-12-04T05:29:50;4.20;84.60
81307;DHT22;70775;50.846;3.224;2023-12-04T05:32:26;4.30;84.00
81307;DHT22;70775;50.846;3.224;2023-12-04T05:34:51;4.30;84.30
81307;DHT22;70775;50.846;3.224;2023-12-04T05:37:17;4.20;84.20
81307;DHT22;70775;50.846;3.224;2023-12-04T05:39:51;4.20;84.30
81307;DHT22;70775;50.846;3.224;2023-12-04T05:45:41;4.20;83.90
81307;DHT22;70775;50.846;3.224;2023-12-04T05:48:07;4.20;84.20
81307;DHT22;70775;50.846;3.224;2023-12-04T05:50:34;4.20;84.70
81307;DHT22;70775;50.846;3.224;2023-12-04T05:53:06;4.20;84.90
81307;DHT22;70775;50.846;3.224;2023-12-04T05:55:32;4.20;84.40
81307;DHT22;70775;50.846;3.224;2023-12-04T05:57:58;4.20;83.90
81307;DHT22;70775;50.846;3.224;2023-12-04T06:00:24;4.20;84.10
81307;DHT22;70775;50.846;3.224;2023-12-04T06:02:51;4.10;85.40
81307;DHT22;70775;50.846;3.224;2023-12-04T06:05:20;4.00;86.30
81307;DHT22;70775;50.846;3.224;2023-12-04T06:08:04;4.00;88.10
81307;DHT22;70775;50.846;3.224;2023-12-04T06:10:46;4.00;88.60
81307;DHT22;70775;50.846;3.224;2023-12-04T06:13:11;3.90;88.60
81307;DHT22;70775;50.846;3.224;2023-12-04T06:15:37;3.90;90.30
81307;DHT22;70775;50.846;3.224;2023-12-04T06:18:18;3.80;90.40
81307;DHT22;70775;50.846;3.224;2023-12-04T06:20:48;3.70;90.80
81307;DHT22;70775;50.846;3.224;2023-12-04T06:23:26;3.70;90.90
81307;DHT22;70775;50.846;3.224;2023-12-04T06:25:52;3.70;91.60
81307;DHT22;70775;50.846;3.224;2023-12-04T06:28:18;3.60;90.90
81307;DHT22;70775;50.846;3.224;2023-12-04T06:30:44;3.60;91.40
81307;DHT22;70775;50.846;3.224;2023-12-04T06:33:10;3.60;91.50
81307;DHT22;70775;50.846;3.224;2023-12-04T06:35:36;3.50;91.40
81307;DHT22;70775;50.846;3.224;2023-12-04T06:38:19;3.50;91.60
81307;DHT22;70775;50.846;3.224;2023-12-04T06:41:06;3.50;92.40
81307;DHT22;70775;50.846;3.224;2023-12-04T06:43:32;3.40;92.10
81307;DHT22;70775;50.846;3.224;2023-12-04T06:45:58;3.40;92.70
81307;DHT22;70775;50.846;3.224;2023-12-04T06:48:24;3.40;93.20
81307;DHT22;70775;50.846;3.224;2023-12-04T06:50:50;3.40;93.00
81307;DHT22;70775;50.846;3.224;2023-12-04T06:53:15;3.40;93.00
81307;DHT22;70775;50.846;3.224;2023-12-04T06:55:46;3.30;93.80
81307;DHT22;70775;50.846;3.224;2023-12-04T06:58:32;3.20;94.70
81307;DHT22;70775;50.846;3.224;2023-12-04T07:00:58;3.20;94.80
81307;DHT22;70775;50.846;3.224;2023-12-04T07:03:23;3.20;95.70
81307;DHT22;70775;50.846;3.224;2023-12-04T07:05:50;3.20;95.10
81307;DHT22;70775;50.846;3.224;2023-12-04T07:08:17;3.30;95.40
81307;DHT22;70775;50.846;3.224;2023-12-04T07:10:49;3.20;95.40
81307;DHT22;70775;50.846;3.224;2023-12-04T07:13:19;3.20;95.50
81307;DHT22;70775;50.846;3.224;2023-12-04T07:15:44;3.30;95.60
81307;DHT22;70775;50.846;3.224;2023-12-04T07:18:26;3.20;95.60
81307;DHT22;70775;50.846;3.224;2023-12-04T07:20:52;3.20;95.90
81307;DHT22;70775;50.846;3.224;2023-12-04T07:23:17;3.20;95.90
81307;DHT22;70775;50.846;3.224;2023-12-04T07:25:43;3.30;96.00
81307;DHT22;70775;50.846;3.224;2023-12-04T07:28:10;3.30;96.40
81307;DHT22;70775;50.846;3.224;2023-12-04T07:30:36;3.30;96.80
81307;DHT22;70775;50.846;3.224;2023-12-04T07:33:04;3.40;96.40
81307;DHT22;70775;50.846;3.224;2023-12-04T07:41:54;3.40;96.60
81307;DHT22;70775;50.846;3.224;2023-12-04T07:44:36;3.30;96.80
81307;DHT22;70775;50.846;3.224;2023-12-04T07:47:06;3.30;96.80
81307;DHT22;70775;50.846;3.224;2023-12-04T07:49:31;3.30;96.60
81307;DHT22;70775;50.846;3.224;2023-12-04T07:51:57;3.30;97.10
81307;DHT22;70775;50.846;3.224;2023-12-04T07:54:23;3.40;97.50
81307;DHT22;70775;50.846;3.224;2023-12-04T07:56:51;3.30;97.30
81307;DHT22;70775;50.846;3.224;2023-12-04T07:59:18;3.40;97.70
81307;DHT22;70775;50.846;3.224;2023-12-04T08:01:44;3.40;98.20
81307;DHT22;70775;50.846;3.224;2023-12-04T08:04:10;3.50;97.70
81307;DHT22;70775;50.846;3.224;2023-12-04T08:06:36;3.50;97.90
81307;DHT22;70775;50.846;3.224;2023-12-04T08:09:02;3.50;97.90
81307;DHT22;70775;50.846;3.224;2023-12-04T08:11:28;3.50;98.40
81307;DHT22;70775;50.846;3.224;2023-12-04T08:13:53;3.50;98.70
81307;DHT22;70775;50.846;3.224;2023-12-04T08:16:19;3.50;98.80
81307;DHT22;70775;50.846;3.224;2023-12-04T08:18:46;3.50;98.90
81307;DHT22;70775;50.846;3.224;2023-12-04T08:21:11;3.50;98.80
81307;DHT22;70775;50.846;3.224;2023-12-04T08:23:38;3.40;99.10
81307;DHT22;70775;50.846;3.224;2023-12-04T08:26:04;3.40;99.90
81307;DHT22;70775;50.846;3.224;2023-12-04T08:28:29;3.30;99.90
81307;DHT22;70775;50.846;3.224;2023-12-04T08:30:58;3.40;99.90
81307;DHT22;70775;50.846;3.224;2023-12-04T08:33:24;3.40;99.90
81307;DHT22;70775;50.846;3.224;2023-12-04T08:35:49;3.30;99.90
81307;DHT22;70775;50.846;3.224;2023-12-04T08:38:26;3.40;99.90
81307;DHT22;70775;50.846;3.224;2023-12-04T08:40:52;3.40;99.60
81307;DHT22;70775;50.846;3.224;2023-12-04T08:43:18;3.40;99.70
81307;DHT22;70775;50.846;3.224;2023-12-04T08:45:45;3.40;99.90
81307;DHT22;70775;50.846;3.224;2023-12-04T08:48:10;3.50;99.60
81307;DHT22;70775;50.846;3.224;2023-12-04T08:50:36;3.50;99.10
81307;DHT22;70775;50.846;3.224;2023-12-04T08:53:03;3.60;99.40
81307;DHT22;70775;50.846;3.224;2023-12-04T08:55:32;3.60;98.80
81307;DHT22;70775;50.846;3.224;2023-12-04T08:57:57;3.60;98.50
81307;DHT22;70775;50.846;3.224;2023-12-04T09:00:23;3.60;98.90
81307;DHT22;70775;50.846;3.224;2023-12-04T09:02:49;3.60;98.80
81307;DHT22;70775;50.846;3.224;2023-12-04T09:05:17;3.60;98.90
81307;DHT22;70775;50.846;3.224;2023-12-04T09:07:42;3.60;99.20
81307;DHT22;70775;50.846;3.224;2023-12-04T09:10:08;3.60;99.80
81307;DHT22;70775;50.846;3.224;2023-12-04T09:12:34;3.60;99.90
81307;DHT22;70775;50.846;3.224;2023-12-04T09:15:02;3.60;99.90
81307;DHT22;70775;50.846;3.224;2023-12-04T09:17:28;3.70;99.90
81307;DHT22;70775;50.846;3.224;2023-12-04T09:19:53;3.60;99.90
81307;DHT22;70775;50.846;3.224;2023-12-04T09:22:19;3.70;99.90
81307;DHT22;70775;50.846;3.224;2023-12-04T09:24:45;3.70;99.90
81307;DHT22;70775;50.846;3.224;2023-12-04T09:27:11;3.70;99.90
81307;DHT22;70775;50.846;3.224;2023-12-04T09:29:36;3.70;99.90
81307;DHT22;70775;50.846;3.224;2023-12-04T09:32:03;3.70;99.90
81307;DHT22;70775;50.846;3.224;2023-12-04T09:34:28;3.70;99.90
81307;DHT22;70775;50.846;3.224;2023-12-04T09:36:54;3.70;99.90
81307;DHT22;70775;50.846;3.224;2023-12-04T09:39:20;3.70;99.90
81307;DHT22;70775;50.846;3.224;2023-12-04T09:41:46;3.80;99.90
81307;DHT22;70775;50.846;3.224;2023-12-04T09:44:12;3.80;99.90
81307;DHT22;70775;50.846;3.224;2023-12-04T09:46:38;3.70;99.90
81307;DHT22;70775;50.846;3.224;2023-12-04T09:49:05;3.80;99.90
81307;DHT22;70775;50.846;3.224;2023-12-04T09:51:31;3.80;99.90
81307;DHT22;70775;50.846;3.224;2023-12-04T09:54:02;3.80;99.90
81307;DHT22;70775;50.846;3.224;2023-12-04T09:56:33;3.80;99.90
81307;DHT22;70775;50.846;3.224;2023-12-04T09:59:00;3.80;99.90
81307;DHT22;70775;50.846;3.224;2023-12-04T10:01:28;3.80;99.90
81307;DHT22;70775;50.846;3.224;2023-12-04T10:03:55;3.80;99.90
81307;DHT22;70775;50.846;3.224;2023-12-04T10:06:28;3.90;99.90
81307;DHT22;70775;50.846;3.224;2023-12-04T10:08:55;3.80;99.90
81307;DHT22;70775;50.846;3.224;2023-12-04T10:11:24;3.80;99.90
81307;DHT22;70775;50.846;3.224;2023-12-04T10:13:50;3.80;99.90
81307;DHT22;70775;50.846;3.224;2023-12-04T10:16:34;3.70;99.90
81307;DHT22;70775;50.846;3.224;2023-12-04T10:19:26;3.70;99.90
81307;DHT22;70775;50.846;3.224;2023-12-04T10:21:53;3.70;99.90
81307;DHT22;70775;50.846;3.224;2023-12-04T10:26:56;3.80;99.90
81307;DHT22;70775;50.846;3.224;2023-12-04T10:29:22;3.80;99.90
81307;DHT22;70775;50.846;3.224;2023-12-04T10:31:47;3.80;99.90
81307;DHT22;70775;50.846;3.224;2023-12-04T10:34:16;3.90;99.90
81307;DHT22;70775;50.846;3.224;2023-12-04T10:36:41;3.80;99.90
81307;DHT22;70775;50.846;3.224;2023-12-04T10:39:07;3.80;99.90
81307;DHT22;70775;50.846;3.224;2023-12-04T10:41:33;3.80;99.90
81307;DHT22;70775;50.846;3.224;2023-12-04T10:44:00;3.80;99.90
81307;DHT22;70775;50.846;3.224;2023-12-04T10:46:27;3.80;99.90
81307;DHT22;70775;50.846;3.224;2023-12-04T10:48:56;3.80;99.90
81307;DHT22;70775;50.846;3.224;2023-12-04T10:51:22;3.80;99.90
81307;DHT22;70775;50.846;3.224;2023-12-04T10:53:49;3.80;99.90
81307;DHT22;70775;50.846;3.224;2023-12-04T10:56:30;3.80;99.90
81307;DHT22;70775;50.846;3.224;2023-12-04T10:59:00;3.90;99.90
81307;DHT22;70775;50.846;3.224;2023-12-04T11:01:27;3.90;99.90
81307;DHT22;70775;50.846;3.224;2023-12-04T11:03:56;3.90;99.90
81307;DHT22;70775;50.846;3.224;2023-12-04T11:06:25;3.80;99.90
81307;DHT22;70775;50.846;3.224;2023-12-04T11:08:56;3.80;99.90
81307;DHT22;70775;50.846;3.224;2023-12-04T11:11:30;3.90;99.90
81307;DHT22;70775;50.846;3.224;2023-12-04T11:14:01;3.90;99.90
81307;DHT22;70775;50.846;3.224;2023-12-04T11:16:42;3.90;99.90
81307;DHT22;70775;50.846;3.224;2023-12-04T11:21:39;4.00;99.90
81307;DHT22;70775;50.846;3.224;2023-12-04T11:24:06;4.00;99.90
81307;DHT22;70775;50.846;3.224;2023-12-04T11:26:33;4.10;99.90
81307;DHT22;70775;50.846;3.224;2023-12-04T11:29:24;4.20;99.90
81307;DHT22;70775;50.846;3.224;2023-12-04T11:31:50;4.20;99.90
81307;DHT22;70775;50.846;3.224;2023-12-04T11:34:16;4.20;99.90
81307;DHT22;70775;50.846;3.224;2023-12-04T11:36:41;4.20;99.90
81307;DHT22;70775;50.846;3.224;2023-12-04T11:39:13;4.20;99.90
81307;DHT22;70775;50.846;3.224;2023-12-04T11:41:41;4.20;99.90
81307;DHT22;70775;50.846;3.224;2023-12-04T11:44:12;4.30;99.90
81307;DHT22;70775;50.846;3.224;2023-12-04T11:47:05;4.30;99.90
81307;DHT22;70775;50.846;3.224;2023-12-04T11:49:31;4.40;99.90
81307;DHT22;70775;50.846;3.224;2023-12-04T11:52:03;4.50;99.90
81307;DHT22;70775;50.846;3.224;2023-12-04T11:57:22;4.70;99.90
81307;DHT22;70775;50.846;3.224;2023-12-04T11:59:50;4.70;99.90
81307;DHT22;70775;50.846;3.224;2023-12-04T12:02:15;4.80;99.90
81307;DHT22;70775;50.846;3.224;2023-12-04T12:04:44;4.90;99.90
81307;DHT22;70775;50.846;3.224;2023-12-04T12:07:11;4.90;99.90
81307;DHT22;70775;50.846;3.224;2023-12-04T12:09:37;4.90;99.90
81307;DHT22;70775;50.846;3.224;2023-12-04T12:12:03;4.80;99.90
81307;DHT22;70775;50.846;3.224;2023-12-04T12:14:30;4.90;99.90
81307;DHT22;70775;50.846;3.224;2023-12-04T12:16:57;4.90;99.90
81307;DHT22;70775;50.846;3.224;2023-12-04T12:19:22;4.90;99.90
81307;DHT22;70775;50.846;3.224;2023-12-04T12:21:48;4.90;99.90
81307;DHT22;70775;50.846;3.224;2023-12-04T12:24:17;5.00;99.90
81307;DHT22;70775;50.846;3.224;2023-12-04T12:26:44;4.90;99.90
81307;DHT22;70775;50.846;3.224;2023-12-04T12:29:11;4.90;99.90
81307;DHT22;70775;50.846;3.224;2023-12-04T12:31:37;4.90;99.90
81307;DHT22;70775;50.846;3.224;2023-12-04T12:34:02;5.00;99.90
81307;DHT22;70775;50.846;3.224;2023-12-04T12:36:31;5.00;99.90
81307;DHT22;70775;50.846;3.224;2023-12-04T12:38:59;5.00;99.90
81307;DHT22;70775;50.846;3.224;2023-12-04T12:41:26;4.90;99.90
81307;DHT22;70775;50.846;3.224;2023-12-04T12:43:52;5.00;99.90
81307;DHT22;70775;50.846;3.224;2023-12-04T12:46:18;5.00;99.90
81307;DHT22;70775;50.846;3.224;2023-12-04T12:48:46;5.00;99.90
81307;DHT22;70775;50.846;3.224;2023-12-04T12:51:13;5.00;99.90
81307;DHT22;70775;50.846;3.224;2023-12-04T12:53:39;5.00;99.90
81307;DHT22;70775;50.846;3.224;2023-12-04T12:56:05;5.10;99.90
81307;DHT22;70775;50.846;3.224;2023-12-04T12:58:31;5.10;99.90
81307;DHT22;70775;50.846;3.224;2023-12-04T13:00:57;5.20;99.90
81307;DHT22;70775;50.846;3.224;2023-12-04T13:03:23;5.20;99.90
81307;DHT22;70775;50.846;3.224;2023-12-04T13:05:48;5.20;99.90
81307;DHT22;70775;50.846;3.224;2023-12-04T13:08:14;5.30;99.90
81307;DHT22;70775;50.846;3.224;2023-12-04T13:10:43;5.30;99.90
81307;DHT22;70775;50.846;3.224;2023-12-04T13:13:14;5.30;99.90
81307;DHT22;70775;50.846;3.224;2023-12-04T13:15:41;5.30;99.90
81307;DHT22;70775;50.846;3.224;2023-12-04T13:18:07;5.30;99.90
81307;DHT22;70775;50.846;3.224;2023-12-04T13:20:34;5.30;99.90
81307;DHT22;70775;50.846;3.224;2023-12-04T13:23:00;5.20;99.90
81307;DHT22;70775;50.846;3.224;2023-12-04T13:25:26;5.20;99.90
81307;DHT22;70775;50.846;3.224;2023-12-04T13:27:52;5.10;99.90
81307;DHT22;70775;50.846;3.224;2023-12-04T13:30:19;5.20;99.90
81307;DHT22;70775;50.846;3.224;2023-12-04T13:32:45;5.20;99.90
81307;DHT22;70775;50.846;3.224;2023-12-04T13:35:12;5.30;99.90
81307;DHT22;70775;50.846;3.224;2023-12-04T13:37:38;5.40;99.90
81307;DHT22;70775;50.846;3.224;2023-12-04T13:40:05;5.40;99.90
81307;DHT22;70775;50.846;3.224;2023-12-04T13:42:34;5.50;99.90
81307;DHT22;70775;50.846;3.224;2023-12-04T13:45:17;5.50;99.90
81307;DHT22;70775;50.846;3.224;2023-12-04T13:47:46;5.50;99.90
81307;DHT22;70775;50.846;3.224;2023-12-04T13:50:12;5.50;99.90
81307;DHT22;70775;50.846;3.224;2023-12-04T13:52:37;5.50;99.90
81307;DHT22;70775;50.846;3.224;2023-12-04T13:55:05;5.50;99.90
81307;DHT22;70775;50.846;3.224;2023-12-04T13:57:42;5.60;99.90
81307;DHT22;70775;50.846;3.224;2023-12-04T14:00:34;5.60;99.90
81307;DHT22;70775;50.846;3.224;2023-12-04T14:02:59;5.40;99.90
81307;DHT22;70775;50.846;3.224;2023-12-04T14:05:54;5.50;99.90
81307;DHT22;70775;50.846;3.224;2023-12-04T14:08:20;5.60;99.90
81307;DHT22;70775;50.846;3.224;2023-12-04T14:13:48;5.60;99.90
81307;DHT22;70775;50.846;3.224;2023-12-04T14:16:15;5.60;99.90
81307;DHT22;70775;50.846;3.224;2023-12-04T14:18:41;5.60;99.90
81307;DHT22;70775;50.846;3.224;2023-12-04T14:21:08;5.60;99.90
81307;DHT22;70775;50.846;3.224;2023-12-04T14:24:09;5.60;99.90
81307;DHT22;70775;50.846;3.224;2023-12-04T14:26:36;5.60;99.90
81307;DHT22;70775;50.846;3.224;2023-12-04T14:29:02;5.60;99.90
81307;DHT22;70775;50.846;3.224;2023-12-04T14:31:28;5.60;99.90
81307;DHT22;70775;50.846;3.224;2023-12-04T14:33:56;5.60;99.90
81307;DHT22;70775;50.846;3.224;2023-12-04T14:36:27;5.60;99.90
81307;DHT22;70775;50.846;3.224;2023-12-04T14:38:53;5.60;99.90
81307;DHT22;70775;50.846;3.224;2023-12-04T14:41:19;5.60;99.90
81307;DHT22;70775;50.846;3.224;2023-12-04T14:43:46;5.60;99.90
81307;DHT22;70775;50.846;3.224;2023-12-04T14:46:27;5.60;99.90
81307;DHT22;70775;50.846;3.224;2023-12-04T14:48:52;5.60;99.90
81307;DHT22;70775;50.846;3.224;2023-12-04T14:51:29;5.60;99.90
81307;DHT22;70775;50.846;3.224;2023-12-04T14:54:08;5.60;99.90
81307;DHT22;70775;50.846;3.224;2023-12-04T14:56:59;5.50;99.90
81307;DHT22;70775;50.846;3.224;2023-12-04T14:59:52;5.50;99.90
81307;DHT22;70775;50.846;3.224;2023-12-04T15:02:56;5.50;99.90
81307;DHT22;70775;50.846;3.224;2023-12-04T15:05:44;5.50;99.90
81307;DHT22;70775;50.846;3.224;2023-12-04T15:08:18;5.60;99.90
81307;DHT22;70775;50.846;3.224;2023-12-04T15:11:24;5.60;99.90
81307;DHT22;70775;50.846;3.224;2023-12-04T15:13:50;5.60;99.90
81307;DHT22;70775;50.846;3.224;2023-12-04T15:16:34;5.60;99.90
81307;DHT22;70775;50.846;3.224;2023-12-04T15:19:24;5.60;99.90
81307;DHT22;70775;50.846;3.224;2023-12-04T15:22:20;5.60;99.90
81307;DHT22;70775;50.846;3.224;2023-12-04T15:24:47;5.70;99.90
81307;DHT22;70775;50.846;3.224;2023-12-04T15:27:13;5.70;99.90
81307;DHT22;70775;50.846;3.224;2023-12-04T15:29:38;5.70;99.90
81307;DHT22;70775;50.846;3.224;2023-12-04T15:32:06;5.70;99.90
81307;DHT22;70775;50.846;3.224;2023-12-04T15:34:31;5.80;99.90
81307;DHT22;70775;50.846;3.224;2023-12-04T15:36:57;5.80;99.90
81307;DHT22;70775;50.846;3.224;2023-12-04T15:39:23;5.80;99.90
81307;DHT22;70775;50.846;3.224;2023-12-04T15:41:48;5.80;99.90
81307;DHT22;70775;50.846;3.224;2023-12-04T15:44:14;5.80;99.90
81307;DHT22;70775;50.846;3.224;2023-12-04T15:46:40;5.90;99.90
81307;DHT22;70775;50.846;3.224;2023-12-04T15:49:15;5.80;99.90
81307;DHT22;70775;50.846;3.224;2023-12-04T15:51:40;5.90;99.90
81307;DHT22;70775;50.846;3.224;2023-12-04T15:54:29;5.90;99.90
81307;DHT22;70775;50.846;3.224;2023-12-04T15:57:14;6.10;99.90
81307;DHT22;70775;50.846;3.224;2023-12-04T15:59:41;6.10;99.90
81307;DHT22;70775;50.846;3.224;2023-12-04T16:02:07;6.20;99.90
81307;DHT22;70775;50.846;3.224;2023-12-04T16:04:33;6.20;99.90
81307;DHT22;70775;50.846;3.224;2023-12-04T16:07:26;6.10;99.90
81307;DHT22;70775;50.846;3.224;2023-12-04T16:09:53;6.30;99.90
81307;DHT22;70775;50.846;3.224;2023-12-04T16:12:18;6.20;99.90
81307;DHT22;70775;50.846;3.224;2023-12-04T16:14:44;6.30;99.90
81307;DHT22;70775;50.846;3.224;2023-12-04T16:20:14;6.30;99.90
81307;DHT22;70775;50.846;3.224;2023-12-04T16:22:49;6.30;99.90
81307;DHT22;70775;50.846;3.224;2023-12-04T16:25:24;6.20;99.90
81307;DHT22;70775;50.846;3.224;2023-12-04T16:27:50;6.30;99.90
81307;DHT22;70775;50.846;3.224;2023-12-04T16:30:17;6.30;99.90
81307;DHT22;70775;50.846;3.224;2023-12-04T16:32:44;6.30;99.90
81307;DHT22;70775;50.846;3.224;2023-12-04T16:35:10;6.30;99.90
81307;DHT22;70775;50.846;3.224;2023-12-04T16:37:35;6.30;99.90